createdAt,value
2023-03-11T00:00:41.134Z,39.70
2023-03-11T00:03:10.366Z,42.87
2023-03-11T00:05:40.625Z,39.73
2023-03-11T00:08:13.673Z,37.90
2023-03-11T00:10:43.358Z,37.20
2023-03-11T00:13:15.217Z,35.47
2023-03-11T00:15:44.124Z,35.80
2023-03-11T00:18:12.013Z,34.23
2023-03-11T00:20:43.275Z,34.80
2023-03-11T00:23:13.728Z,33.57
2023-03-11T00:25:41.667Z,34.40
2023-03-11T00:28:10.467Z,34.47
2023-03-11T00:30:38.927Z,36.53
2023-03-11T00:33:09.185Z,35.80
2023-03-11T00:35:37.433Z,36.50
2023-03-11T00:38:07.422Z,35.17
2023-03-11T00:40:37.256Z,34.20
2023-03-11T00:43:05.192Z,35.57
2023-03-11T00:45:33.708Z,35.40
2023-03-11T00:48:01.333Z,34.47
2023-03-11T00:50:31.190Z,34.00
2023-03-11T00:52:59.261Z,35.90
2023-03-11T00:55:28.876Z,35.90
2023-03-11T00:58:00.064Z,36.97
2023-03-11T01:00:29.689Z,34.80
2023-03-11T01:02:58.142Z,35.07
2023-03-11T01:05:29.191Z,37.10
2023-03-11T01:07:56.990Z,39.33
2023-03-11T01:10:24.849Z,36.90
2023-03-11T01:12:52.748Z,38.03
2023-03-11T01:15:24.652Z,36.17
2023-03-11T01:17:52.282Z,37.53
2023-03-11T01:20:20.123Z,37.10
2023-03-11T01:22:47.890Z,38.27
2023-03-11T01:25:17.932Z,39.17
2023-03-11T01:27:45.686Z,39.33
2023-03-11T01:30:16.723Z,41.03
2023-03-11T01:32:46.190Z,43.07
2023-03-11T01:35:15.355Z,38.70
2023-03-11T01:37:43.061Z,40.00
2023-03-11T01:40:18.108Z,41.20
2023-03-11T01:42:45.727Z,40.80
2023-03-11T01:45:36.939Z,41.27
2023-03-11T01:48:06.469Z,41.63
2023-03-11T01:50:37.356Z,41.93
2023-03-11T01:53:06.450Z,44.70
2023-03-11T01:55:35.080Z,43.50
2023-03-11T01:58:06.670Z,43.30
2023-03-11T02:00:34.730Z,45.83
2023-03-11T02:03:08.058Z,43.50
2023-03-11T02:05:37.490Z,43.67
2023-03-11T02:08:05.341Z,42.07
2023-03-11T02:10:33.016Z,43.10
2023-03-11T02:13:01.582Z,42.63
2023-03-11T02:15:29.346Z,43.60
2023-03-11T02:17:57.288Z,44.10
2023-03-11T02:20:37.482Z,45.83
2023-03-11T02:23:06.470Z,46.07
2023-03-11T02:25:40.481Z,43.93
2023-03-11T02:28:12.526Z,46.90
2023-03-11T02:30:43.232Z,48.87
2023-03-11T02:33:12.894Z,48.73
2023-03-11T02:35:40.585Z,47.97
2023-03-11T02:38:08.246Z,50.67
2023-03-11T02:40:48.326Z,51.70
2023-03-11T02:43:20.822Z,50.30
2023-03-11T02:45:50.359Z,49.77
2023-03-11T02:48:18.624Z,48.30
2023-03-11T02:50:47.788Z,52.17
2023-03-11T02:53:15.407Z,50.10
2023-03-11T02:55:43.057Z,52.70
2023-03-11T02:58:10.763Z,49.53
2023-03-11T03:00:39.786Z,51.53
2023-03-11T03:03:07.439Z,50.13
2023-03-11T03:05:35.163Z,48.00
2023-03-11T03:08:03.336Z,49.10
2023-03-11T03:10:30.961Z,47.00
2023-03-11T03:12:58.648Z,46.73
2023-03-11T03:15:26.450Z,47.73
2023-03-11T03:17:55.448Z,46.50
2023-03-11T03:20:23.696Z,44.23
2023-03-11T03:22:51.489Z,43.60
2023-03-11T03:25:19.306Z,42.87
2023-03-11T03:27:47.137Z,39.53
2023-03-11T03:30:15.458Z,41.83
2023-03-11T03:32:43.131Z,39.93
2023-03-11T03:35:12.736Z,40.20
2023-03-11T03:37:40.522Z,38.90
2023-03-11T03:40:09.940Z,38.93
2023-03-11T03:42:38.789Z,36.90
2023-03-11T03:45:08.916Z,38.40
2023-03-11T03:47:37.144Z,37.93
2023-03-11T03:50:05.071Z,40.60
2023-03-11T03:52:34.135Z,38.73
2023-03-11T03:55:02.240Z,37.77
2023-03-11T03:57:30.128Z,39.77
2023-03-11T03:59:57.752Z,38.97
2023-03-11T04:02:25.389Z,38.80
2023-03-11T04:04:53.271Z,39.97
2023-03-11T04:07:20.869Z,37.30
2023-03-11T04:09:49.804Z,40.63
2023-03-11T04:12:18.450Z,40.97
2023-03-11T04:14:46.086Z,40.10
2023-03-11T04:17:14.625Z,41.97
2023-03-11T04:19:42.225Z,39.67
2023-03-11T04:22:10.167Z,41.70
2023-03-11T04:24:37.804Z,40.53
2023-03-11T04:27:07.690Z,42.30
2023-03-11T04:29:35.310Z,40.17
2023-03-11T04:32:03.019Z,43.60
2023-03-11T04:34:30.645Z,45.90
2023-03-11T04:36:58.281Z,42.70
2023-03-11T04:39:26.036Z,46.30
2023-03-11T04:41:53.694Z,43.97
2023-03-11T04:44:22.702Z,43.53
2023-03-11T04:46:50.296Z,45.50
2023-03-11T04:49:17.974Z,45.93
2023-03-11T04:51:45.701Z,45.93
2023-03-11T04:54:13.451Z,45.10
2023-03-11T04:56:41.076Z,45.47
2023-03-11T04:59:09.034Z,44.97
2023-03-11T05:01:38.111Z,46.30
2023-03-11T05:04:06.508Z,47.17
2023-03-11T05:06:34.193Z,45.30
2023-03-11T05:09:01.831Z,45.73
2023-03-11T05:11:29.960Z,46.17
2023-03-11T05:13:57.586Z,44.10
2023-03-11T05:16:25.467Z,45.30
2023-03-11T05:18:54.438Z,46.20
2023-03-11T05:21:22.036Z,45.80
2023-03-11T05:23:50.014Z,47.47
2023-03-11T05:26:17.680Z,45.43
2023-03-11T05:28:45.483Z,47.07
2023-03-11T05:31:13.315Z,47.30
2023-03-11T05:33:40.981Z,45.83
2023-03-11T05:36:11.490Z,47.13
2023-03-11T05:38:39.451Z,47.97
2023-03-11T05:41:07.447Z,48.67
2023-03-11T05:43:35.110Z,46.08
2023-03-11T05:46:02.735Z,42.50
2023-03-11T05:48:30.837Z,44.73
2023-03-11T05:50:59.336Z,46.70
2023-03-11T05:53:28.286Z,47.60
2023-03-11T05:55:59.107Z,48.80
2023-03-11T05:58:27.115Z,47.30
2023-03-11T06:00:54.768Z,45.73
2023-03-11T06:03:22.414Z,46.90
2023-03-11T06:05:51.144Z,46.50
2023-03-11T06:08:18.769Z,46.47
2023-03-11T06:10:49.017Z,44.33
2023-03-11T06:13:16.766Z,42.87
2023-03-11T06:15:45.819Z,42.30
2023-03-11T06:18:13.403Z,42.83
2023-03-11T06:20:41.059Z,42.77
2023-03-11T06:23:08.631Z,42.07
2023-03-11T06:25:36.308Z,40.20
2023-03-11T06:28:05.558Z,39.10
2023-03-11T06:30:33.580Z,41.23
2023-03-11T06:33:01.577Z,38.67
2023-03-11T06:35:29.377Z,40.07
2023-03-11T06:37:57.166Z,39.40
2023-03-11T06:40:24.808Z,37.40
2023-03-11T06:42:52.362Z,35.57
2023-03-11T06:45:21.309Z,34.67
2023-03-11T06:47:48.949Z,33.60
2023-03-11T06:50:17.355Z,32.40
2023-03-11T06:52:45.004Z,30.00
2023-03-11T06:55:12.664Z,29.50
2023-03-11T06:57:40.386Z,29.00
2023-03-11T07:00:12.066Z,27.97
2023-03-11T07:02:41.092Z,25.23
2023-03-11T07:05:09.283Z,25.83
2023-03-11T07:07:36.891Z,25.00
2023-03-11T07:10:05.201Z,24.43
2023-03-11T07:12:32.827Z,22.43
2023-03-11T07:15:01.125Z,23.60
2023-03-11T07:17:28.858Z,23.53
2023-03-11T07:19:57.838Z,23.67
2023-03-11T07:22:25.848Z,23.43
2023-03-11T07:24:53.633Z,23.30
2023-03-11T07:27:21.475Z,26.53
2023-03-11T07:29:49.586Z,24.63
2023-03-11T07:32:17.870Z,24.30
2023-03-11T07:34:45.668Z,22.37
2023-03-11T07:37:14.604Z,23.40
2023-03-11T07:39:42.642Z,22.60
2023-03-11T07:42:10.290Z,20.73
2023-03-11T07:44:37.963Z,21.27
2023-03-11T07:47:06.236Z,19.07
2023-03-11T07:49:34.254Z,19.87
2023-03-11T07:52:01.848Z,19.10
2023-03-11T07:54:30.781Z,18.73
2023-03-11T07:56:58.392Z,18.53
2023-03-11T07:59:26.341Z,18.63
2023-03-11T08:01:54.042Z,17.90
2023-03-11T08:04:21.620Z,18.33
2023-03-11T08:06:49.512Z,18.50
2023-03-11T08:09:17.479Z,18.47
2023-03-11T08:11:48.127Z,19.80
2023-03-11T08:14:16.828Z,18.97
2023-03-11T08:16:44.552Z,18.50
2023-03-11T08:19:12.497Z,18.37
2023-03-11T08:21:40.241Z,15.80
2023-03-11T08:24:08.507Z,16.53
2023-03-11T08:26:36.146Z,15.43
2023-03-11T08:29:05.403Z,15.83
2023-03-11T08:31:34.974Z,15.30
2023-03-11T08:34:05.246Z,13.97
2023-03-11T08:36:33.958Z,13.73
2023-03-11T08:39:01.901Z,14.20
2023-03-11T08:41:29.637Z,12.50
2023-03-11T08:43:57.630Z,12.50
2023-03-11T08:46:29.119Z,11.13
2023-03-11T08:49:00.917Z,11.70
2023-03-11T08:51:30.404Z,9.97
2023-03-11T08:53:58.095Z,10.17
2023-03-11T08:56:26.471Z,11.43
2023-03-11T08:58:55.169Z,9.73
2023-03-11T09:01:23.645Z,9.47
2023-03-11T09:03:53.041Z,10.27
2023-03-11T09:06:20.725Z,8.63
2023-03-11T09:08:49.876Z,10.17
2023-03-11T09:11:18.809Z,9.07
2023-03-11T09:13:46.482Z,8.37
2023-03-11T09:16:15.289Z,8.47
2023-03-11T09:18:43.353Z,8.20
2023-03-11T09:21:12.815Z,8.00
2023-03-11T09:23:44.012Z,8.20
2023-03-11T09:26:12.282Z,8.40
2023-03-11T09:28:40.568Z,7.90
2023-03-11T09:31:08.282Z,8.43
2023-03-11T09:33:38.503Z,7.80
2023-03-11T09:36:07.222Z,7.40
2023-03-11T09:38:36.180Z,7.80
2023-03-11T09:41:10.994Z,7.60
2023-03-11T09:43:54.372Z,8.57
2023-03-11T09:46:46.861Z,8.27
2023-03-11T09:49:22.866Z,7.97
2023-03-11T09:51:58.784Z,7.80
2023-03-11T09:54:30.642Z,7.23
2023-03-11T09:56:58.376Z,8.10
2023-03-11T09:59:31.723Z,7.60
2023-03-11T10:02:00.230Z,7.93
2023-03-11T10:04:34.148Z,8.23
2023-03-11T10:07:07.087Z,8.00
2023-03-11T10:09:41.980Z,6.83
2023-03-11T10:12:20.930Z,7.17
2023-03-11T10:15:05.070Z,6.90
2023-03-11T10:17:48.233Z,6.43
2023-03-11T10:20:21.722Z,6.97
2023-03-11T10:22:59.291Z,6.60
2023-03-11T10:25:31.730Z,6.23
2023-03-11T10:28:03.739Z,6.77
2023-03-11T10:30:34.816Z,6.10
2023-03-11T10:33:08.781Z,6.67
2023-03-11T10:35:40.429Z,6.53
2023-03-11T10:38:15.839Z,6.17
2023-03-11T10:40:46.095Z,6.93
2023-03-11T10:43:17.839Z,5.73
2023-03-11T10:45:48.661Z,5.70
2023-03-11T10:48:19.830Z,6.10
2023-03-11T10:50:53.258Z,5.50
2023-03-11T10:53:21.788Z,5.30
2023-03-11T10:55:52.830Z,6.20
2023-03-11T10:58:22.543Z,6.50
2023-03-11T11:01:01.991Z,6.37
2023-03-11T11:03:30.318Z,5.73
2023-03-11T11:06:00.921Z,5.93
2023-03-11T11:08:32.267Z,5.77
2023-03-11T11:11:03.667Z,6.00
2023-03-11T11:13:34.342Z,5.93
2023-03-11T11:16:04.122Z,5.40
2023-03-11T11:18:35.009Z,5.40
2023-03-11T11:21:06.561Z,6.03
2023-03-11T11:23:39.746Z,5.83
2023-03-11T11:26:17.693Z,5.67
2023-03-11T11:28:45.766Z,5.23
2023-03-11T11:31:25.699Z,6.83
2023-03-11T11:33:55.087Z,5.30
2023-03-11T11:36:26.518Z,4.90
2023-03-11T11:38:56.773Z,4.40
2023-03-11T11:41:29.532Z,5.40
2023-03-11T11:44:00.284Z,4.90
2023-03-11T11:46:32.325Z,5.23
2023-03-11T11:49:08.228Z,4.53
2023-03-11T11:51:40.583Z,5.33
2023-03-11T11:54:18.090Z,5.57
2023-03-11T11:56:47.609Z,4.80
2023-03-11T11:59:18.848Z,5.80
2023-03-11T12:01:58.212Z,5.30
2023-03-11T12:04:39.884Z,5.93
2023-03-11T12:07:30.819Z,5.53
2023-03-11T12:10:21.457Z,4.97
2023-03-11T12:13:05.746Z,5.83
2023-03-11T12:15:41.148Z,5.27
2023-03-11T12:18:17.005Z,4.83
2023-03-11T12:20:48.634Z,4.83
2023-03-11T12:23:21.403Z,5.20
2023-03-11T12:26:08.313Z,5.93
2023-03-11T12:28:43.840Z,5.03
2023-03-11T12:31:14.072Z,4.83
2023-03-11T12:33:45.051Z,5.80
2023-03-11T12:36:25.558Z,7.20
2023-03-11T12:38:55.066Z,7.60
2023-03-11T12:41:36.854Z,7.40
2023-03-11T12:44:22.393Z,7.43
2023-03-11T12:47:32.467Z,8.20
2023-03-11T12:50:40.645Z,9.20
2023-03-11T12:53:17.976Z,9.20
2023-03-11T12:56:03.579Z,9.27
2023-03-11T12:58:54.538Z,10.30
2023-03-11T13:01:47.475Z,9.63
2023-03-11T13:04:28.073Z,10.30
2023-03-11T13:07:31.178Z,10.00
2023-03-11T13:10:13.336Z,11.60
2023-03-11T13:12:44.587Z,9.87
2023-03-11T13:15:41.651Z,10.60
2023-03-11T13:18:20.251Z,10.57
2023-03-11T13:20:57.027Z,10.70
2023-03-11T13:23:28.332Z,10.20
2023-03-11T13:26:37.131Z,11.63
2023-03-11T13:29:42.402Z,10.50
2023-03-11T13:32:48.626Z,10.53
2023-03-11T13:35:34.887Z,9.77
2023-03-11T13:38:27.080Z,10.43
2023-03-11T13:40:54.851Z,12.60
2023-03-11T13:43:24.893Z,10.30
2023-03-11T13:45:57.624Z,11.37
2023-03-11T13:48:29.952Z,8.67
2023-03-11T13:51:02.929Z,10.73
2023-03-11T13:53:35.603Z,9.00
2023-03-11T13:56:03.268Z,8.67
2023-03-11T13:58:31.129Z,8.90
2023-03-11T14:01:01.037Z,8.07
2023-03-11T14:03:33.403Z,9.83
2023-03-11T14:06:05.893Z,10.33
2023-03-11T14:08:35.290Z,8.40
2023-03-11T14:11:04.636Z,8.33
2023-03-11T14:13:33.539Z,7.50
2023-03-11T14:16:05.494Z,8.90
2023-03-11T14:18:37.830Z,7.77
2023-03-11T14:21:12.819Z,7.40
2023-03-11T14:23:43.602Z,7.70
2023-03-11T14:26:15.536Z,7.87
2023-03-11T14:28:46.269Z,7.97
2023-03-11T14:31:30.310Z,8.10
2023-03-11T14:34:04.237Z,8.30
2023-03-11T14:36:41.536Z,9.13
2023-03-11T14:39:23.893Z,9.73
2023-03-11T14:41:54.700Z,9.03
2023-03-11T14:44:24.521Z,10.50
2023-03-11T14:46:54.072Z,8.70
2023-03-11T14:49:24.445Z,9.47
2023-03-11T14:51:59.495Z,9.23
2023-03-11T14:54:30.697Z,8.70
2023-03-11T14:57:05.585Z,9.07
2023-03-11T14:59:35.941Z,8.40
2023-03-11T15:02:28.203Z,8.90
2023-03-11T15:04:59.421Z,9.30
2023-03-11T15:07:29.533Z,9.00
2023-03-11T15:09:57.475Z,10.97
2023-03-11T15:12:33.735Z,11.53
2023-03-11T15:15:01.569Z,11.53
2023-03-11T15:17:41.290Z,11.27
2023-03-11T15:20:25.440Z,11.40
2023-03-11T15:23:01.742Z,11.53
2023-03-11T15:25:31.433Z,12.80
2023-03-11T15:27:59.530Z,13.03
2023-03-11T15:30:30.254Z,13.60
2023-03-11T15:32:59.516Z,13.40
2023-03-11T15:35:28.331Z,14.47
2023-03-11T15:38:21.419Z,14.87
2023-03-11T15:40:54.798Z,13.57
2023-03-11T15:43:26.107Z,14.60
2023-03-11T15:45:55.120Z,13.80
2023-03-11T15:48:23.728Z,15.40
2023-03-11T15:50:54.445Z,14.93
2023-03-11T15:53:25.780Z,17.47
2023-03-11T15:55:54.775Z,16.33
2023-03-11T15:58:22.743Z,14.70
2023-03-11T16:00:53.239Z,13.80
2023-03-11T16:03:20.915Z,14.47
2023-03-11T16:05:49.047Z,14.57
2023-03-11T16:08:17.112Z,13.80
2023-03-11T16:10:46.144Z,12.90
2023-03-11T16:13:15.026Z,14.90
2023-03-11T16:15:43.529Z,18.80
2023-03-11T16:18:11.847Z,23.60
2023-03-11T16:20:42.739Z,25.77
2023-03-11T16:23:17.102Z,27.20
2023-03-11T16:25:47.558Z,29.43
2023-03-11T16:28:17.244Z,29.47
2023-03-11T16:30:45.326Z,28.40
2023-03-11T16:33:12.974Z,29.60
2023-03-11T16:35:40.686Z,28.83
2023-03-11T16:38:09.103Z,28.93
2023-03-11T16:40:37.246Z,29.60
2023-03-11T16:43:08.881Z,29.67
2023-03-11T16:45:36.636Z,29.40
2023-03-11T16:48:05.424Z,29.50
2023-03-11T16:50:34.229Z,26.73
2023-03-11T16:53:02.613Z,28.03
2023-03-11T16:55:30.642Z,27.97
2023-03-11T16:57:58.445Z,27.40
2023-03-11T17:00:27.468Z,24.30
2023-03-11T17:02:55.347Z,25.10
2023-03-11T17:05:24.336Z,24.90
2023-03-11T17:07:54.371Z,25.30
2023-03-11T17:10:24.391Z,24.20
2023-03-11T17:12:52.122Z,24.80
2023-03-11T17:15:20.078Z,23.10
2023-03-11T17:17:49.137Z,23.97
2023-03-11T17:20:16.802Z,24.60
2023-03-11T17:22:44.475Z,23.60
2023-03-11T17:25:12.102Z,23.73
2023-03-11T17:27:40.384Z,23.50
2023-03-11T17:30:09.396Z,23.60
2023-03-11T17:32:37.108Z,24.97
2023-03-11T17:35:06.920Z,24.87
2023-03-11T17:37:34.593Z,24.57
2023-03-11T17:40:02.364Z,24.80
2023-03-11T17:42:30.456Z,25.40
2023-03-11T17:44:59.205Z,25.77
2023-03-11T17:47:27.244Z,25.50
2023-03-11T17:49:55.298Z,25.20
2023-03-11T17:52:24.261Z,25.57
2023-03-11T17:54:53.459Z,25.10
2023-03-11T17:57:21.343Z,24.20
2023-03-11T17:59:51.195Z,24.37
2023-03-11T18:02:19.145Z,24.30
2023-03-11T18:04:52.009Z,24.70
2023-03-11T18:07:22.219Z,24.70
2023-03-11T18:09:53.610Z,24.67
2023-03-11T18:12:21.812Z,23.77
2023-03-11T18:14:49.508Z,24.27
2023-03-11T18:17:18.489Z,24.63
2023-03-11T18:19:46.301Z,24.87
2023-03-11T18:22:15.406Z,24.57
2023-03-11T18:24:43.030Z,24.60
2023-03-11T18:27:12.102Z,24.47
2023-03-11T18:29:39.828Z,23.80
2023-03-11T18:32:07.535Z,23.97
2023-03-11T18:34:35.599Z,24.60
2023-03-11T18:37:03.209Z,23.90
2023-03-11T18:39:30.896Z,24.93
2023-03-11T18:41:58.625Z,24.13
2023-03-11T18:44:27.792Z,24.10
2023-03-11T18:46:55.526Z,24.03
2023-03-11T18:49:23.238Z,23.17
2023-03-11T18:51:50.848Z,25.80
2023-03-11T18:54:18.415Z,23.80
2023-03-11T18:56:46.152Z,24.33
2023-03-11T18:59:14.410Z,24.27
2023-03-11T19:01:43.378Z,24.47
2023-03-11T19:04:11.445Z,24.93
2023-03-11T19:06:39.114Z,24.07
2023-03-11T19:09:06.783Z,25.50
2023-03-11T19:11:34.507Z,25.00
2023-03-11T19:14:02.136Z,24.57
2023-03-11T19:16:30.058Z,24.03
2023-03-11T19:19:00.349Z,24.10
2023-03-11T19:21:29.006Z,23.97
2023-03-11T19:23:58.430Z,26.33
2023-03-11T19:26:43.060Z,24.87
2023-03-11T19:29:12.766Z,23.83
2023-03-11T19:31:40.356Z,25.80
2023-03-11T19:34:09.389Z,24.20
2023-03-11T19:36:37.033Z,24.93
2023-03-11T19:39:04.859Z,25.17
2023-03-11T19:41:32.941Z,24.67
2023-03-11T19:44:00.866Z,25.60
2023-03-11T19:46:29.688Z,26.97
2023-03-11T19:48:58.592Z,25.17
2023-03-11T19:51:32.934Z,25.40
2023-03-11T19:54:06.729Z,25.30
2023-03-11T19:56:34.460Z,25.60
2023-03-11T19:59:02.137Z,25.77
2023-03-11T20:01:31.361Z,25.43
2023-03-11T20:03:59.142Z,25.50
2023-03-11T20:06:28.353Z,25.63
2023-03-11T20:08:55.950Z,25.80
2023-03-11T20:11:23.595Z,26.37
2023-03-11T20:13:51.283Z,27.20
2023-03-11T20:16:20.049Z,26.53
2023-03-11T20:18:49.876Z,26.10
2023-03-11T20:21:17.889Z,27.00
2023-03-11T20:23:48.848Z,26.30
2023-03-11T20:26:19.419Z,27.37
2023-03-11T20:28:47.227Z,25.63
2023-03-11T20:31:17.643Z,28.20
2023-03-11T20:33:45.316Z,47.27
2023-03-11T20:36:15.712Z,50.23
2023-03-11T20:38:43.873Z,45.53
2023-03-11T20:41:12.858Z,49.70
2023-03-11T20:43:41.434Z,52.13
2023-03-11T20:46:10.701Z,62.80
2023-03-11T20:48:39.491Z,58.83
2023-03-11T20:51:10.250Z,61.80
2023-03-11T20:53:37.973Z,54.37
2023-03-11T20:56:08.659Z,55.33
2023-03-11T20:58:38.508Z,56.13
2023-03-11T21:01:12.149Z,56.73
2023-03-11T21:03:39.931Z,56.10
2023-03-11T21:06:15.233Z,55.37
2023-03-11T21:08:43.331Z,55.20
2023-03-11T21:11:11.075Z,53.73
2023-03-11T21:13:40.381Z,54.00
2023-03-11T21:16:09.511Z,59.20
2023-03-11T21:18:37.461Z,55.60
2023-03-11T21:21:08.390Z,53.60
2023-03-11T21:23:36.375Z,59.17
2023-03-11T21:26:05.872Z,62.50
2023-03-11T21:28:34.484Z,64.53
2023-03-11T21:31:05.690Z,64.77
2023-03-11T21:33:34.345Z,67.20
2023-03-11T21:36:02.627Z,65.87
2023-03-11T21:38:30.636Z,64.17
2023-03-11T21:41:06.951Z,67.80
2023-03-11T21:43:35.248Z,71.43
2023-03-11T21:46:05.448Z,68.53
2023-03-11T21:48:34.158Z,77.40
2023-03-11T21:51:02.636Z,69.83
2023-03-11T21:53:30.957Z,67.70
2023-03-11T21:55:59.706Z,68.30
2023-03-11T21:58:28.108Z,67.10
2023-03-11T22:00:55.999Z,72.53
2023-03-11T22:03:25.251Z,82.27
2023-03-11T22:05:57.806Z,74.93
2023-03-11T22:08:25.708Z,79.63
2023-03-11T22:10:53.738Z,74.03
2023-03-11T22:13:21.761Z,79.03
2023-03-11T22:15:49.678Z,81.87
2023-03-11T22:18:17.477Z,90.53
2023-03-11T22:20:46.883Z,84.80
2023-03-11T22:23:14.634Z,80.97
2023-03-11T22:25:42.343Z,80.47
2023-03-11T22:28:12.130Z,86.77
2023-03-11T22:30:39.845Z,84.33
2023-03-11T22:33:07.801Z,83.60
2023-03-11T22:35:35.581Z,91.63
2023-03-11T22:38:04.818Z,84.57
2023-03-11T22:40:32.416Z,82.83
2023-03-11T22:43:00.118Z,85.63
2023-03-11T22:45:27.842Z,86.67
2023-03-11T22:47:55.468Z,89.47
2023-03-11T22:50:23.071Z,88.93
2023-03-11T22:52:51.447Z,93.03
2023-03-11T22:55:20.494Z,86.23
2023-03-11T22:57:48.213Z,96.47
2023-03-11T23:00:19.388Z,82.80
2023-03-11T23:02:47.658Z,86.03
2023-03-11T23:05:16.753Z,83.10
2023-03-11T23:07:44.445Z,89.90
2023-03-11T23:10:13.728Z,84.93
2023-03-11T23:12:43.411Z,90.00
2023-03-11T23:15:14.288Z,93.70
2023-03-11T23:17:42.109Z,92.00
2023-03-11T23:20:12.843Z,98.90
2023-03-11T23:22:42.112Z,87.33
2023-03-11T23:25:12.651Z,86.93
2023-03-11T23:27:42.791Z,83.80
2023-03-11T23:30:11.994Z,85.83
2023-03-11T23:32:39.841Z,82.93
2023-03-11T23:35:08.418Z,84.77
2023-03-11T23:37:36.333Z,86.30
2023-03-11T23:40:04.945Z,79.20
2023-03-11T23:42:34.012Z,83.80
2023-03-11T23:45:03.056Z,89.53
2023-03-11T23:47:30.778Z,77.70
2023-03-11T23:49:58.439Z,79.27
2023-03-11T23:52:26.683Z,77.13
2023-03-11T23:54:54.497Z,68.63
2023-03-11T23:57:22.514Z,66.10
2023-03-11T23:59:50.148Z,65.10
